• Join FlightAware (Why Join?)
  • Login
  • US Flag 
03:10AM EDT


 

Airport Tracker/Info


-or-


 

Live Flight TrackerFlight Track Log ✈ VH-LDQ ✈ 11-Jul-2013 ✈ YIVL / IVR - YBCG / OOL

Flight Track Log - Related Links

Times and Time Zones

All times are in EDT time to prevent confusion due to time zone crossing. See the VH-LDQ flight status page for this flight to view local times or setup timezone preferences in your user account.

Time Position Orientation Groundspeed Altitude Reporting Facility
EDT Latitude Longitude Course Direction KTS MPH feet Rate Location/Type
04:28AM -29.7821 151.2940 236° Southwest 300  Level Aus ATC (Calculated)
04:28AM -29.8328 151.2070 58° Northeast 224 258 6,700 7,200 Climbing Aus ATC (RADAR)
04:29AM -29.8104 151.2490 58° Northeast 210 242 8,400 2,160 Climbing Aus ATC (RADAR)
04:30AM -29.7851 151.2812 48° Northeast 208 239 9,800 2,100 Climbing Aus ATC (RADAR)
04:30AM -29.7574 151.3203 51° Northeast 211 243 11,400 1,980 Climbing Aus ATC (RADAR)
04:31AM -29.7312 151.3563 50° Northeast 199 229 12,800 1,620 Climbing Aus ATC (RADAR)
04:32AM -29.7014 151.3973 50° Northeast 203 234 14,000 1,380 Climbing Aus ATC (RADAR)
04:33AM -29.6738 151.4363 51° Northeast 208 239 15,000 1,380 Climbing Aus ATC (RADAR)
04:33AM -29.6429 151.4810 51° Northeast 221 254 16,200 1,440 Climbing Aus ATC (RADAR)
04:34AM -29.6074 151.5296 50° Northeast 219 252 17,500 1,320 Climbing Aus ATC (RADAR)
04:35AM -29.5744 151.5771 51° Northeast 231 266 18,600 1,200 Climbing Aus ATC (RADAR)
04:36AM -29.5397 151.6257 51° Northeast 239 275 19,500 600 Climbing Aus ATC (RADAR)
04:37AM -29.5105 151.6648 49° Northeast 271 312 19,500  Level Aus ATC (RADAR)
04:37AM -29.4681 151.7258 51° Northeast 294 338 19,500  Level Aus ATC (RADAR)
04:38AM -29.4142 151.8018 51° Northeast 310 357 19,500  Level Aus ATC (RADAR)
04:39AM -29.3626 151.8706 49° Northeast 311 358 19,500  Level Aus ATC (RADAR)
04:40AM -29.3032 151.9545 51° Northeast 312 359 19,500  Level Aus ATC (RADAR)
04:41AM -29.2619 152.0114 50° Northeast 310 357 19,500  Level Aus ATC (RADAR)
04:42AM -29.2299 152.0559 51° Northeast 310 357 19,500  Level Aus ATC (RADAR)
04:43AM -29.1886 152.1127 50° Northeast 310 357 19,500  Level Aus ATC (RADAR)
04:43AM -29.1616 152.1507 51° Northeast 308 354 19,500  Level Aus ATC (RADAR)
04:44AM -29.1297 152.1950 50° Northeast 309 356 19,500 -720 Level Aus ATC (RADAR)
04:44AM -29.1260 152.2010 51° Northeast 309 356 19,000  Descending FlightAware
04:44AM -29.0897 152.2523 51° Northeast 308 354 19,500  Climbing Aus ATC (RADAR)
04:44AM -29.0870 152.2540 50° Northeast 309 356 19,000 -840 Descending FlightAware
04:45AM -29.0331 152.3296 50° Northeast 319 367 18,700 -300 Descending Aus ATC (RADAR)
04:46AM -29.0280 152.3340 50° Northeast 323 372 18,600 -1,620 Descending FlightAware
04:47AM -28.9630 152.4240 50° Northeast 333 383 16,800 -1,440 Descending FlightAware
04:48AM -28.9051 152.5025 50° Northeast 324 373 16,100 -540 Descending Aus ATC (RADAR)
04:48AM -28.9090 152.4970 50° Northeast 331 381 16,300 -1,080 Climbing FlightAware
04:48AM -28.8575 152.5672 50° Northeast 317 365 15,200 -1,980 Descending Aus ATC (RADAR)
04:49AM -28.8500 152.5780 50° Northeast 317 365 14,500 -1,860 Descending FlightAware
04:49AM -28.8220 152.6170 51° Northeast 314 361 14,000 -660 Descending FlightAware
04:50AM -28.7894 152.6645 51° Northeast 312 359 13,800 -1,080 Descending Aus ATC (RADAR)
04:50AM -28.7800 152.6740 51° Northeast 311 358 13,200 -1,080 Descending FlightAware
04:50AM -28.7513 152.7130 51° Northeast 308 354 13,100 -1,200 Descending Aus ATC (RADAR)
04:50AM -28.7430 152.7240 51° Northeast 309 356 12,400 -1,680 Descending FlightAware
04:51AM -28.7030 152.7790 50° Northeast 303 349 11,600 -960 Descending FlightAware
04:52AM -28.6670 152.8270 49° Northeast 295 339 11,100 -840 Descending FlightAware
04:53AM -28.6330 152.8740 51° Northeast 281 323 10,500 -900 Descending FlightAware
04:53AM -28.5950 152.9250 50° Northeast 272 313 9,900 -900 Descending FlightAware
04:54AM -28.5710 152.9580 50° Northeast 271 312 9,400 -1,020 Descending FlightAware
04:54AM -28.5510 152.9850 50° Northeast 269 310 9,000 -840 Descending FlightAware
04:55AM -28.5310 153.0110 49° Northeast 263 303 8,700 -600 Descending FlightAware
04:55AM -28.5080 153.0420 50° Northeast 251 289 8,500 -240 Descending FlightAware
04:56AM -28.4870 153.0710 50° Northeast 239 275 8,500 960 Level FlightAware
04:56AM -28.4854 153.0730 50° Northeast 245 282 9,000  Climbing Aus ATC (RADAR)
04:56AM -28.4680 153.0960 49° Northeast 235 270 8,500 -600 Descending FlightAware
04:57AM -28.4470 153.1250 51° Northeast 233 268 8,500 -540 Level FlightAware
04:57AM -28.4260 153.1530 50° Northeast 246 283 8,000 -1,080 Descending FlightAware
04:57AM -28.4140 153.1730 56° Northeast 247 284 7,600 -780 Descending FlightAware
04:58AM -28.3953 153.2165 56° Northeast 243 280 7,300 -540 Descending Aus ATC (RADAR)
04:58AM -28.3940 153.2190 56° Northeast 248 285 7,200 -1,260 Descending FlightAware
04:59AM -28.3760 153.2620 65° Northeast 249 287 6,500 -900 Descending FlightAware
04:59AM -28.3660 153.2870 66° East 229 264 6,400 -540 Descending FlightAware
05:00AM -28.3354 153.3572 66° East 236 272 5,800 -900 Descending Aus ATC (RADAR)
05:01AM -28.3180 153.3979 64° Northeast 241 277 4,900 -1,320 Descending Aus ATC (RADAR)
05:01AM -28.2980 153.4445 64° Northeast 242 278 4,200 -900 Descending Aus ATC (RADAR)
05:02AM -28.2808 153.4838 64° Northeast 234 269 3,900 -540 Descending Aus ATC (RADAR)
05:03AM -28.2599 153.5286 62° Northeast 213 245 3,500 -840 Descending Aus ATC (RADAR)
05:03AM -28.2420 153.5660 62° Northeast 209 241 2,600 -1,020 Descending FlightAware
05:04AM -28.2210 153.6070 60° Northeast 198 228 2,100 -780 Descending FlightAware
05:04AM -28.2140 153.6110 27° Northeast 203 234 2,100 -660 Level FlightAware
05:05AM -28.1870 153.5980 337° Northwest 208 239 1,700 -720 Descending FlightAware
05:05AM -28.1770 153.5900 325° Northwest 208 239 1,600 -600 Descending FlightAware
05:05AM -28.1600 153.5710 315° West 207 238 1,300 -120 Descending FlightAware
05:06AM -28.1249 153.5351 315° West 174 200 1,500 -300 Climbing Aus ATC (RADAR)
05:06AM -28.1220 153.5310 315° West 141 162 1,000 -1,080 Descending FlightAware
05:07AM -28.1180 153.5040 280° West 116 133 600 -360 Descending FlightAware
05:07AM -28.1190 153.4910 265° West 116 133 600  Level FlightAware
05:08AM -28.1370 153.4885 265° West 87 100 600 -360 Level Aus ATC (RADAR)
05:09AM -28.1504 153.4972 150° Southeast 93 107 200 -720 Descending Aus ATC (RADAR)
05:10AM -28.1659 153.5112 141° Southeast 72 83 -240 Descending Aus ATC (RADAR)